• Join FlightAware (Why Join?)
  • Login
  • US Flag 
05:09PM EDT


 

Airport Tracker/Info


-or-


 

Live Flight TrackerFlight Track Log ✈ SWA2966 ✈ 05-May-2013 ✈ KOAK - KONT

Flight Track Log - Related Links

Times and Time Zones

All times are in EDT time to prevent confusion due to time zone crossing. See the SWA2966 flight status page for this flight to view local times or setup timezone preferences in your user account.

Time Position Orientation Groundspeed Altitude Reporting Facility
EDT Latitude Longitude Course Direction KTS MPH feet Rate Location/Type
03:25PM 37.7000 -122.2000 139° Southeast 154 177 1,300  Level Northern Cal TRACON
03:26PM 37.6692 -122.1667 139° Southeast 186 214 2,700 2,220 Climbing Oakland Center
03:27PM 37.6222 -122.1311 149° Southeast 195 224 5,700 3,360 Climbing Oakland Center
03:28PM 37.5656 -122.1564 199° South 212 244 9,600 3,420 Climbing Oakland Center
03:29PM 37.4914 -122.1628 184° South 278 320 12,800 3,600 Climbing Oakland Center
03:30PM 37.4081 -122.0886 145° Southeast 306 352 17,100 3,600 Climbing Oakland Center
03:31PM 37.3294 -122.0222 146° Southeast 337 388 20,300 3,120 Climbing Oakland Center
03:32PM 37.2575 -121.9339 136° Southeast 369 425 23,600 2,700 Climbing Oakland Center
03:34PM 37.1169 -121.7169 129° Southeast 398 458 28,600 2,160 Climbing Oakland Center
03:35PM 37.0481 -121.6089 129° Southeast 412 474 30,400 1,740 Climbing Oakland Center
03:36PM 36.9725 -121.4939 129° Southeast 424 488 32,200 1,680 Climbing Oakland Center
03:37PM 36.8961 -121.3733 128° Southeast 439 505 33,900 1,740 Climbing Oakland Center
03:38PM 36.8028 -121.2322 130° Southeast 451 519 35,800 1,980 Climbing Oakland Center
03:39PM 36.7233 -121.1111 129° Southeast 451 519 38,000 1,560 Climbing Oakland Center
03:40PM 36.6464 -120.9936 129° Southeast 443 510 39,000 480 Climbing Oakland Center
03:41PM 36.5689 -120.8756 129° Southeast 440 506 39,000  Level Oakland Center
03:42PM 36.4894 -120.7567 130° Southeast 445 512 39,000  Level Oakland Center
03:43PM 36.4089 -120.6336 129° Southeast 456 525 39,000  Level Oakland Center
03:44PM 36.3267 -120.5136 130° Southeast 456 525 39,000  Level Oakland Center
03:46PM 36.1444 -120.2386 129° Southeast 461 531 39,000  Level Oakland Center
03:47PM 36.0617 -120.1153 130° Southeast 464 534 39,000  Level Oakland Center
03:48PM 35.9794 -119.9983 131° Southeast 451 519 39,000  Level Oakland Center
03:49PM 35.8983 -119.8783 130° Southeast 449 517 39,000  Level Oakland Center
03:51PM 35.8144 -119.7556 130° Southeast 459 528 39,000  Level Oakland Center
03:52PM 35.7328 -119.6344 130° Southeast 459 528 39,000  Level Oakland Center
03:53PM 35.6494 -119.5153 131° Southeast 459 528 39,000  Level Oakland Center
03:54PM 35.5372 -119.3503 130° Southeast 449 517 39,000 -420 Level Los Angeles Center
03:55PM 35.4564 -119.2325 130° Southeast 450 518 38,100 -960 Descending Los Angeles Center
03:56PM 35.3772 -119.1175 130° Southeast 444 511 37,100 -1,020 Descending Los Angeles Center
03:57PM 35.2950 -119.0017 131° Southeast 447 514 36,100 -960 Descending Los Angeles Center
03:58PM 35.2167 -118.8864 130° Southeast 444 511 35,200 -1,560 Descending Los Angeles Center
03:59PM 35.1178 -118.7489 131° Southeast 447 514 32,900 -2,160 Descending Los Angeles Center
04:00PM 35.0406 -118.6383 130° Southeast 431 496 30,800 -2,040 Descending Los Angeles Center
04:01PM 34.9672 -118.5339 131° Southeast 409 471 28,700 -1,920 Descending Los Angeles Center
04:02PM 34.9006 -118.4403 131° Southeast 395 455 26,800 -1,800 Descending Los Angeles Center
04:03PM 34.8328 -118.3467 131° Southeast 375 432 25,000 -1,380 Descending Los Angeles Center
04:04PM 34.7966 -118.3120 131° Southeast  Level FlightAware Approximate
04:04PM 34.7539 -118.2364 131° Southeast 360 414 24,000  Level Los Angeles Center
04:05PM 34.6867 -118.1433 131° Southeast 368 423 23,800 -660 Descending Los Angeles Center
04:06PM 34.6092 -118.0192 127° Southeast 385 443 22,600 -1,620 Descending Los Angeles Center
04:08PM 34.5589 -117.9075 119° Southeast 381 438 20,500 -2,340 Descending Los Angeles Center
04:09PM 34.4983 -117.7764 119° Southeast 376 433 17,800 -2,400 Descending Los Angeles Center
04:10PM 34.4492 -117.6706 119° Southeast 366 421 15,600 -1,860 Descending Los Angeles Center
04:11PM 34.4022 -117.5667 119° Southeast 359 413 14,000 -1,200 Descending Los Angeles Center
04:12PM 34.3611 -117.4717 118° Southeast 317 365 13,200 -780 Descending Los Angeles Center
04:13PM 34.2833 -117.3333 124° Southeast 297 342 12,000 -600 Descending Southern California TRACON
04:14PM 34.2631 -117.3103 137° Southeast 284 327 12,000 -480 Level Los Angeles Center
04:15PM 34.1975 -117.2583 147° Southeast 245 282 11,300 -1,680 Descending Los Angeles Center
04:16PM 34.1328 -117.2750 192° South 242 278 8,500 -2,640 Descending Los Angeles Center
04:16PM 34.1000 -117.2833 192° South 244 281 7,400 -2,580 Descending Southern California TRACON
04:17PM 34.0333 -117.3000 192° South 244 281 5,000 -1,560 Descending Southern California TRACON
04:18PM 34.0333 -117.3667 270° West 234 269 4,300 -720 Descending Southern California TRACON
04:19PM 34.0500 -117.4167 292° West 224 258 3,500 -960 Descending Southern California TRACON
04:20PM 34.0500 -117.5000 270° West 186 214 2,400 -960 Descending Southern California TRACON
04:21PM 34.0500 -117.5500 270° West 137 158 1,600 -840 Descending Southern California TRACON
04:24PM 34.0500 -117.6000 276° West  Level FlightAware Approximate
04:31PM 34.0560 -117.6012 276° West  Level Estimated
04:32PM 34.0500 -117.6000 276° West  Level FlightAware Approximate